createdAt,value
2022-12-19T00:02:06.255Z,100070.63
2022-12-19T00:04:35.658Z,100063.50
2022-12-19T00:07:04.536Z,100068.97
2022-12-19T00:09:33.304Z,100072.91
2022-12-19T00:12:05.585Z,100072.66
2022-12-19T00:14:37.357Z,100067.13
2022-12-19T00:17:06.196Z,100059.38
2022-12-19T00:19:35.008Z,100073.06
2022-12-19T00:22:07.072Z,100074.97
2022-12-19T00:24:38.462Z,100061.88
2022-12-19T00:27:08.694Z,100061.88
2022-12-19T00:29:37.839Z,100060.59
2022-12-19T00:32:07.196Z,100052.06
2022-12-19T00:34:38.021Z,100050.75
2022-12-19T00:37:07.076Z,100050.53
2022-12-19T00:39:36.375Z,100049.13
2022-12-19T00:42:05.565Z,100047.00
2022-12-19T00:44:36.658Z,100033.56
2022-12-19T00:47:05.732Z,100019.28
2022-12-19T00:49:34.891Z,100016.78
2022-12-19T00:52:04.937Z,100015.13
2022-12-19T00:54:33.989Z,100021.66
2022-12-19T00:57:03.529Z,100023.81
2022-12-19T00:59:32.336Z,100027.03
2022-12-19T01:02:02.677Z,100027.28
2022-12-19T01:04:36.751Z,100018.94
2022-12-19T01:07:08.804Z,100018.47
2022-12-19T01:09:38.424Z,100018.25
2022-12-19T01:12:26.104Z,100011.09
2022-12-19T01:15:04.662Z,100016.91
2022-12-19T01:17:38.728Z,100009.91
2022-12-19T01:20:29.110Z,100013.72
2022-12-19T01:23:00.170Z,100002.06
2022-12-19T01:25:29.794Z,100004.41
2022-12-19T01:27:59.261Z,100009.44
2022-12-19T01:30:30.846Z,99998.69
2022-12-19T01:33:02.876Z,100002.16
2022-12-19T01:35:31.698Z,100001.44
2022-12-19T01:38:08.615Z,100010.38
2022-12-19T01:40:38.575Z,100004.69
2022-12-19T01:43:07.885Z,99997.38
2022-12-19T01:45:45.210Z,99998.00
2022-12-19T01:48:21.571Z,99997.75
2022-12-19T01:51:01.956Z,99990.84
2022-12-19T01:53:48.241Z,99991.53
2022-12-19T01:56:25.591Z,99979.66
2022-12-19T01:59:06.676Z,99969.88
2022-12-19T02:01:51.079Z,99958.44
2022-12-19T02:04:32.593Z,99965.47
2022-12-19T02:07:09.378Z,99966.19
2022-12-19T02:09:47.236Z,99967.97
2022-12-19T02:12:26.656Z,99967.28
2022-12-19T02:15:03.052Z,99952.50
2022-12-19T02:17:52.635Z,99947.28
2022-12-19T02:21:10.979Z,99952.25
2022-12-19T02:24:57.519Z,99942.03
2022-12-19T02:28:21.161Z,99925.97
2022-12-19T02:31:11.414Z,99923.22
2022-12-19T02:33:56.686Z,99918.47
2022-12-19T02:36:40.469Z,99925.38
2022-12-19T02:39:19.396Z,99929.31
2022-12-19T02:41:56.874Z,99937.03
2022-12-19T02:44:33.165Z,99944.31
2022-12-19T02:47:06.843Z,99943.59
2022-12-19T02:49:39.657Z,99950.59
2022-12-19T02:52:15.405Z,99937.28
2022-12-19T02:54:45.099Z,99943.97
2022-12-19T02:57:29.350Z,99947.75
2022-12-19T03:00:09.658Z,99942.06
2022-12-19T03:03:00.458Z,99947.75
2022-12-19T03:05:41.499Z,99950.25
2022-12-19T03:08:20.738Z,99950.59
2022-12-19T03:10:58.986Z,99954.66
2022-12-19T03:13:33.657Z,99949.75
2022-12-19T03:16:05.951Z,99945.13
2022-12-19T03:18:36.363Z,99944.75
2022-12-19T03:21:16.822Z,99956.44
2022-12-19T03:23:48.709Z,99965.13
2022-12-19T03:26:22.054Z,99969.41
2022-12-19T03:28:57.410Z,99976.91
2022-12-19T03:31:31.852Z,99978.69
2022-12-19T03:34:06.155Z,99974.78
2022-12-19T03:36:45.255Z,99981.31
2022-12-19T03:39:17.946Z,99973.94
2022-12-19T03:42:04.770Z,99977.25
2022-12-19T03:44:40.411Z,99973.44
2022-12-19T03:47:16.899Z,99983.03
2022-12-19T03:49:48.977Z,99988.19
2022-12-19T03:52:30.268Z,99973.97
2022-12-19T03:55:10.279Z,99971.22
2022-12-19T03:57:47.144Z,99978.50
2022-12-19T04:00:19.055Z,99988.22
2022-12-19T04:02:58.906Z,99981.53
2022-12-19T04:05:31.094Z,99990.69
2022-12-19T04:08:07.172Z,99984.59
2022-12-19T04:10:44.849Z,99978.03
2022-12-19T04:13:19.235Z,99989.72
2022-12-19T04:16:21.689Z,99991.28
2022-12-19T04:19:00.238Z,99997.59
2022-12-19T04:21:43.724Z,99988.53
2022-12-19T04:24:20.443Z,99992.34
2022-12-19T04:26:54.976Z,99994.72
2022-12-19T04:29:26.713Z,99976.09
2022-12-19T04:31:55.862Z,99983.59
2022-12-19T04:34:24.737Z,99965.72
2022-12-19T04:37:03.662Z,99956.63
2022-12-19T04:39:32.632Z,99957.53
2022-12-19T04:42:01.414Z,99943.06
2022-12-19T04:44:30.312Z,99947.56
2022-12-19T04:46:59.081Z,99946.16
2022-12-19T04:49:29.728Z,99949.22
2022-12-19T04:52:00.339Z,99951.50
2022-12-19T04:54:29.623Z,99947.31
2022-12-19T04:56:58.922Z,99956.38
2022-12-19T04:59:27.912Z,99956.56
2022-12-19T05:01:56.855Z,99955.13
2022-12-19T05:04:26.094Z,99955.25
2022-12-19T05:06:54.831Z,99955.13
2022-12-19T05:09:25.436Z,99962.38
2022-12-19T05:11:54.117Z,99966.41
2022-12-19T05:14:23.279Z,99959.13
2022-12-19T05:16:57.213Z,99966.31
2022-12-19T05:19:29.610Z,99966.31
2022-12-19T05:21:58.454Z,99967.00
2022-12-19T05:24:28.825Z,99974.28
2022-12-19T05:26:57.834Z,99973.44
2022-12-19T05:29:27.059Z,99968.06
2022-12-19T05:31:56.388Z,99969.63
2022-12-19T05:34:26.508Z,99966.03
2022-12-19T05:36:55.316Z,99963.78
2022-12-19T05:39:24.729Z,99958.94
2022-12-19T05:41:54.893Z,99962.94
2022-12-19T05:44:24.087Z,99953.78
2022-12-19T05:46:53.424Z,99958.47
2022-12-19T05:49:23.142Z,99963.00
2022-12-19T05:51:53.454Z,99972.53
2022-12-19T05:54:22.303Z,99968.13
2022-12-19T05:56:51.074Z,99981.56
2022-12-19T05:59:21.178Z,99977.63
2022-12-19T06:01:49.985Z,99971.47
2022-12-19T06:04:18.806Z,99971.41
2022-12-19T06:06:47.507Z,99956.25
2022-12-19T06:09:16.264Z,99960.41
2022-12-19T06:11:45.132Z,99955.75
2022-12-19T06:14:14.947Z,99961.53
2022-12-19T06:16:45.149Z,99954.06
2022-12-19T06:19:13.956Z,99961.53
2022-12-19T06:21:48.257Z,99969.88
2022-12-19T06:24:17.666Z,99967.97
2022-12-19T06:26:46.795Z,99969.34
2022-12-19T06:29:15.512Z,99973.84
2022-12-19T06:31:45.922Z,99976.06
2022-12-19T06:34:32.975Z,99972.88
2022-12-19T06:37:07.950Z,99978.28
2022-12-19T06:39:37.339Z,99974.84
2022-12-19T06:42:23.717Z,99975.09
2022-12-19T06:44:54.366Z,99974.84
2022-12-19T06:47:26.764Z,99961.31
2022-12-19T06:49:55.549Z,99960.09
2022-12-19T06:52:24.375Z,99962.00
2022-12-19T06:54:53.086Z,99954.72
2022-12-19T06:57:21.912Z,99967.69
2022-12-19T06:59:50.628Z,99960.94
2022-12-19T07:02:30.178Z,99938.03
2022-12-19T07:05:05.122Z,99949.66
2022-12-19T07:07:34.827Z,99955.44
2022-12-19T07:10:03.709Z,99957.94
2022-12-19T07:12:32.601Z,99955.47
2022-12-19T07:15:01.323Z,99961.84
2022-12-19T07:17:31.859Z,99957.16
2022-12-19T07:20:03.475Z,99963.78
2022-12-19T07:22:35.809Z,99972.41
2022-12-19T07:25:07.285Z,99955.56
2022-12-19T07:27:37.459Z,99954.16
2022-12-19T07:30:09.160Z,99952.53
2022-12-19T07:32:40.050Z,99942.31
2022-12-19T07:35:10.216Z,99951.84
2022-12-19T07:37:38.919Z,99956.56
2022-12-19T07:40:09.355Z,99957.50
2022-12-19T07:42:38.899Z,99969.72
2022-12-19T07:45:09.007Z,99954.34
2022-12-19T07:47:39.176Z,99964.75
2022-12-19T07:50:08.467Z,99985.22
2022-12-19T07:52:37.322Z,99960.31
2022-12-19T07:55:06.990Z,99964.47
2022-12-19T07:57:35.765Z,99964.91
2022-12-19T08:00:05.698Z,99948.84
2022-12-19T08:02:42.809Z,99952.84
2022-12-19T08:05:12.703Z,99949.53
2022-12-19T08:07:42.089Z,99954.94
2022-12-19T08:10:12.671Z,99944.69
2022-12-19T08:12:41.666Z,99945.94
2022-12-19T08:15:11.498Z,99955.78
2022-12-19T08:17:42.013Z,99961.88
2022-12-19T08:20:12.637Z,99962.00
2022-12-19T08:22:41.457Z,99947.03
2022-12-19T08:25:11.205Z,99928.88
2022-12-19T08:27:40.108Z,99926.94
2022-12-19T08:30:10.784Z,99927.63
2022-12-19T08:32:40.122Z,99923.19
2022-12-19T08:35:10.989Z,99924.56
2022-12-19T08:37:40.742Z,99922.88
2022-12-19T08:40:11.354Z,99908.47
2022-12-19T08:42:40.224Z,99898.09
2022-12-19T08:45:10.539Z,99899.00
2022-12-19T08:47:39.260Z,99889.28
2022-12-19T08:50:10.420Z,99881.19
2022-12-19T08:52:39.355Z,99871.44
2022-12-19T08:55:10.127Z,99871.53
2022-12-19T08:57:38.873Z,99875.53
2022-12-19T09:00:09.798Z,99871.03
2022-12-19T09:02:39.259Z,99865.16
2022-12-19T09:06:04.030Z,99865.16
2022-12-19T09:07:59.211Z,99861.94
2022-12-19T09:10:28.039Z,99863.19
2022-12-19T09:12:58.088Z,99854.84
2022-12-19T09:15:26.928Z,99858.78
2022-12-19T09:17:55.736Z,99856.91
2022-12-19T09:20:25.956Z,99860.09
2022-12-19T09:22:55.295Z,99857.13
2022-12-19T09:25:24.055Z,99846.81
2022-12-19T09:28:26.277Z,99844.22
2022-12-19T09:30:41.586Z,99838.88
2022-12-19T09:33:10.762Z,99827.78
2022-12-19T09:35:40.900Z,99835.63
2022-12-19T09:38:09.682Z,99832.22
2022-12-19T09:41:07.471Z,99831.75
2022-12-19T09:43:56.630Z,99832.94
2022-12-19T09:46:42.482Z,99824.41
2022-12-19T09:49:20.152Z,99830.22
2022-12-19T09:52:00.482Z,99829.06
2022-12-19T09:54:38.167Z,99824.78
2022-12-19T09:57:16.318Z,99832.06
2022-12-19T09:59:52.291Z,99831.44
2022-12-19T10:02:43.017Z,99828.84
2022-12-19T10:06:25.105Z,99824.91
2022-12-19T10:16:06.081Z,99822.38
2022-12-19T10:18:56.425Z,99826.50
2022-12-19T10:25:09.010Z,99823.88
2022-12-19T10:27:58.594Z,99810.84
2022-12-19T10:30:34.396Z,99807.25
2022-12-19T10:33:20.558Z,99804.25
2022-12-19T10:35:56.180Z,99804.44
2022-12-19T10:38:38.322Z,99810.22
2022-12-19T10:41:21.991Z,99811.53
2022-12-19T10:44:05.874Z,99809.38
2022-12-19T10:46:42.557Z,99800.97
2022-12-19T10:49:18.539Z,99809.91
2022-12-19T10:52:00.214Z,99810.59
2022-12-19T10:54:41.715Z,99810.59
2022-12-19T10:57:26.279Z,99804.69
2022-12-19T11:00:00.804Z,99794.88
2022-12-19T11:02:42.592Z,99803.63
2022-12-19T11:05:30.318Z,99806.28
2022-12-19T11:08:11.381Z,99801.69
2022-12-19T11:11:55.184Z,99781.53
2022-12-19T11:19:22.329Z,99776.56
2022-12-19T11:22:13.202Z,99770.63
2022-12-19T11:29:37.952Z,99758.09
2022-12-19T11:29:43.775Z,99766.50
2022-12-19T11:30:36.672Z,99753.16
2022-12-19T11:30:43.362Z,99752.81
2022-12-19T11:34:21.429Z,99745.22
2022-12-19T11:36:58.137Z,99742.56
2022-12-19T11:39:42.137Z,99747.53
2022-12-19T11:42:22.292Z,99736.94
2022-12-19T11:45:02.738Z,99742.56
2022-12-19T11:47:42.216Z,99739.28
2022-12-19T11:50:20.739Z,99720.09
2022-12-19T11:53:04.475Z,99725.03
2022-12-19T11:55:47.946Z,99723.41
2022-12-19T11:58:16.871Z,99719.78
2022-12-19T12:01:08.042Z,99712.84
2022-12-19T12:04:09.869Z,99714.13
2022-12-19T12:06:49.662Z,99708.53
2022-12-19T12:13:51.149Z,99703.25
2022-12-19T12:18:37.594Z,99695.97
2022-12-19T12:24:39.851Z,99698.44
2022-12-19T12:31:12.903Z,99698.75
2022-12-19T12:31:18.626Z,99703.25
2022-12-19T12:31:41.324Z,99697.59
2022-12-19T12:32:06.511Z,99686.34
2022-12-19T12:35:32.686Z,99693.31
2022-12-19T12:38:27.212Z,99681.56
2022-12-19T12:41:15.323Z,99680.75
2022-12-19T12:44:08.535Z,99673.78
2022-12-19T12:46:45.052Z,99663.56
2022-12-19T12:49:35.994Z,99664.19
2022-12-19T12:52:10.403Z,99665.19
2022-12-19T12:54:45.219Z,99672.31
2022-12-19T12:57:33.880Z,99672.97
2022-12-19T13:00:26.809Z,99666.53
2022-12-19T13:03:07.113Z,99664.25
2022-12-19T13:05:55.649Z,99670.81
2022-12-19T13:08:39.497Z,99674.97
2022-12-19T13:11:36.176Z,99661.41
2022-12-19T13:14:06.079Z,99668.50
2022-12-19T13:16:54.946Z,99662.56
2022-12-19T13:19:29.179Z,99671.16
2022-12-19T13:22:20.482Z,99672.97
2022-12-19T13:24:53.058Z,99673.81
2022-12-19T13:27:49.470Z,99667.88
2022-12-19T13:30:22.111Z,99667.19
2022-12-19T13:33:12.059Z,99668.72
2022-12-19T13:37:32.451Z,99672.19
2022-12-19T13:40:01.729Z,99673.00
2022-12-19T13:42:01.451Z,99670.38
2022-12-19T13:44:32.120Z,99658.94
2022-12-19T13:47:00.982Z,99660.78
2022-12-19T13:49:35.352Z,99649.72
2022-12-19T13:52:06.294Z,99646.38
2022-12-19T13:54:48.646Z,99654.81
2022-12-19T13:57:27.452Z,99643.91
2022-12-19T14:00:01.818Z,99647.88
2022-12-19T14:02:45.378Z,99644.75
2022-12-19T14:05:48.562Z,99645.91
2022-12-19T14:08:24.878Z,99641.75
2022-12-19T14:11:43.157Z,99634.84
2022-12-19T14:14:15.027Z,99632.38
2022-12-19T14:16:47.472Z,99633.84
2022-12-19T14:19:23.363Z,99633.50
2022-12-19T14:22:04.371Z,99634.50
2022-12-19T14:24:42.179Z,99633.84
2022-12-19T14:28:17.611Z,99638.47
2022-12-19T14:30:30.345Z,99639.13
2022-12-19T14:33:47.423Z,99638.47
2022-12-19T14:36:10.213Z,99645.41
2022-12-19T14:39:27.234Z,99645.41
2022-12-19T14:42:03.975Z,99638.47
2022-12-19T14:52:27.908Z,99643.06
2022-12-19T14:53:51.675Z,99645.06
2022-12-19T14:54:14.515Z,99641.78
2022-12-19T14:54:37.068Z,99641.78
2022-12-19T14:56:45.107Z,99642.44
2022-12-19T14:59:07.441Z,99633.50
2022-12-19T15:01:53.110Z,99633.16
2022-12-19T15:04:52.575Z,99638.44
2022-12-19T15:07:22.405Z,99637.31
2022-12-19T15:11:08.833Z,99637.31
2022-12-19T15:14:51.498Z,99638.13
2022-12-19T15:16:07.387Z,99643.44
2022-12-19T15:18:43.595Z,99640.44
2022-12-19T15:21:15.495Z,99639.44
2022-12-19T15:23:46.299Z,99652.00
2022-12-19T15:26:19.382Z,99645.25
2022-12-19T15:28:51.990Z,99642.59
2022-12-19T15:31:34.857Z,99647.72
2022-12-19T15:34:34.729Z,99639.78
2022-12-19T15:37:04.887Z,99640.25
2022-12-19T15:39:33.840Z,99637.78
2022-12-19T15:42:03.371Z,99623.75
2022-12-19T15:44:37.901Z,99625.22
2022-12-19T15:47:16.728Z,99623.75
2022-12-19T15:49:47.360Z,99625.91
2022-12-19T15:52:20.099Z,99628.72
2022-12-19T15:54:51.058Z,99628.38
2022-12-19T15:57:40.872Z,99617.16
2022-12-19T16:00:18.685Z,99612.19
2022-12-19T16:03:22.976Z,99607.25
2022-12-19T16:05:42.338Z,99607.72
2022-12-19T16:08:14.539Z,99609.56
2022-12-19T16:10:46.323Z,99600.16
2022-12-19T16:13:22.289Z,99605.25
2022-12-19T16:15:52.298Z,99598.16
2022-12-19T16:18:21.151Z,99590.75
2022-12-19T16:20:51.551Z,99597.03
2022-12-19T16:23:22.450Z,99598.50
2022-12-19T16:25:52.790Z,99593.22
2022-12-19T16:28:27.115Z,99599.16
2022-12-19T16:30:57.810Z,99603.78
2022-12-19T16:33:30.474Z,99595.50
2022-12-19T16:36:06.087Z,99593.84
2022-12-19T16:38:36.022Z,99603.44
2022-12-19T16:47:45.013Z,99622.94
2022-12-19T16:50:24.315Z,99620.47
2022-12-19T16:52:56.217Z,99623.59
2022-12-19T16:55:27.552Z,99631.84
2022-12-19T16:57:59.023Z,99617.47
2022-12-19T17:00:30.416Z,99625.91
2022-12-19T17:03:08.743Z,99615.69
2022-12-19T17:05:38.107Z,99622.63
2022-12-19T17:08:13.469Z,99617.16
2022-12-19T17:10:46.434Z,99616.34
2022-12-19T17:13:19.051Z,99617.66
2022-12-19T17:15:55.965Z,99621.28
2022-12-19T17:18:35.915Z,99612.53
2022-12-19T17:21:05.630Z,99603.94
2022-12-19T17:23:38.821Z,99610.88
2022-12-19T17:26:11.458Z,99613.69
2022-12-19T17:28:48.967Z,99607.41
2022-12-19T17:31:25.679Z,99604.78
2022-12-19T17:33:59.177Z,99609.72
2022-12-19T17:36:37.115Z,99607.06
2022-12-19T17:39:22.291Z,99604.13
2022-12-19T17:41:53.466Z,99604.94
2022-12-19T17:44:22.480Z,99603.78
2022-12-19T17:46:52.580Z,99598.34
2022-12-19T17:49:29.405Z,99605.59
2022-12-19T17:52:01.316Z,99612.19
2022-12-19T17:54:32.910Z,99608.25
2022-12-19T17:57:02.013Z,99598.63
2022-12-19T17:59:31.047Z,99595.84
2022-12-19T18:02:01.074Z,99601.78
2022-12-19T18:04:32.311Z,99594.84
2022-12-19T18:07:01.642Z,99594.19
2022-12-19T18:09:32.196Z,99606.09
2022-12-19T18:12:02.147Z,99606.09
2022-12-19T18:14:31.788Z,99594.03
2022-12-19T18:17:02.122Z,99597.16
2022-12-19T18:19:36.391Z,99597.16
2022-12-19T18:22:05.801Z,99585.44
2022-12-19T18:24:36.539Z,99598.97
2022-12-19T18:27:06.466Z,99597.31
2022-12-19T18:29:35.656Z,99588.56
2022-12-19T18:32:04.784Z,99592.03
2022-12-19T18:34:36.031Z,99590.88
2022-12-19T18:37:05.585Z,99602.28
2022-12-19T18:39:36.929Z,99596.81
2022-12-19T18:42:21.289Z,99593.22
2022-12-19T18:44:50.377Z,99593.84
2022-12-19T18:47:25.504Z,99602.63
2022-12-19T18:49:54.591Z,99607.59
2022-12-19T18:52:23.606Z,99596.34
2022-12-19T18:54:54.161Z,99592.38
2022-12-19T18:57:23.214Z,99587.75
2022-12-19T18:59:52.041Z,99573.03
2022-12-19T19:02:28.936Z,99570.75
2022-12-19T19:04:59.008Z,99575.03
2022-12-19T19:07:27.761Z,99554.53
2022-12-19T19:09:57.965Z,99546.78
2022-12-19T19:12:42.922Z,99544.31
2022-12-19T19:15:12.278Z,99540.19
2022-12-19T19:17:43.600Z,99544.63
2022-12-19T19:20:13.275Z,99547.94
2022-12-19T19:22:42.298Z,99558.00
2022-12-19T19:25:14.318Z,99565.44
2022-12-19T19:27:43.556Z,99569.91
2022-12-19T19:30:14.117Z,99564.13
2022-12-19T19:32:54.998Z,99566.44
2022-12-19T19:35:27.289Z,99567.09
2022-12-19T19:38:01.548Z,99562.31
2022-12-19T19:40:32.150Z,99578.31
2022-12-19T19:43:01.116Z,99574.38
2022-12-19T19:45:29.775Z,99573.41
2022-12-19T19:47:58.585Z,99570.75
2022-12-19T19:50:27.282Z,99562.16
2022-12-19T19:52:56.312Z,99559.50
2022-12-19T19:55:28.830Z,99539.53
2022-12-19T19:57:59.352Z,99535.06
2022-12-19T20:00:28.878Z,99533.75
2022-12-19T20:02:58.003Z,99528.78
2022-12-19T20:05:29.860Z,99537.22
2022-12-19T20:07:58.972Z,99530.13
2022-12-19T20:10:27.796Z,99525.47
2022-12-19T20:12:56.587Z,99514.44
2022-12-19T20:15:31.968Z,99523.19
2022-12-19T20:18:01.058Z,99524.84
2022-12-19T20:20:34.036Z,99507.47
2022-12-19T20:23:05.238Z,99504.00
2022-12-19T20:25:34.110Z,99504.69
2022-12-19T20:28:02.945Z,99503.38
2022-12-19T20:30:33.720Z,99510.28
2022-12-19T20:33:02.443Z,99496.09
2022-12-19T20:35:31.422Z,99492.44
2022-12-19T20:38:00.231Z,99484.50
2022-12-19T20:40:29.788Z,99490.16
2022-12-19T20:42:58.542Z,99491.78
2022-12-19T20:45:27.460Z,99489.50
2022-12-19T20:47:57.857Z,99484.22
2022-12-19T20:50:26.638Z,99483.22
2022-12-19T20:52:55.694Z,99478.94
2022-12-19T20:55:24.655Z,99471.31
2022-12-19T20:57:53.353Z,99476.97
2022-12-19T21:00:23.533Z,99475.63
2022-12-19T21:03:26.465Z,99473.31
2022-12-19T21:05:42.787Z,99468.03
2022-12-19T21:08:11.557Z,99468.69
2022-12-19T21:10:40.312Z,99452.69
2022-12-19T21:13:09.051Z,99463.75
2022-12-19T21:15:37.786Z,99476.13
2022-12-19T21:18:06.684Z,99469.84
2022-12-19T21:20:36.976Z,99463.75
2022-12-19T21:23:07.438Z,99470.84
2022-12-19T21:25:36.217Z,99474.78
2022-12-19T21:28:05.280Z,99481.72
2022-12-19T21:30:33.994Z,99475.28
2022-12-19T21:33:04.003Z,99467.38
2022-12-19T21:35:35.011Z,99467.22
2022-12-19T21:38:04.104Z,99479.75
2022-12-19T21:40:39.067Z,99475.63
2022-12-19T21:43:11.701Z,99456.13
2022-12-19T21:45:41.363Z,99462.09
2022-12-19T21:48:10.163Z,99463.56
2022-12-19T21:50:38.932Z,99469.03
2022-12-19T21:53:07.662Z,99471.69
2022-12-19T21:55:36.391Z,99467.38
2022-12-19T21:58:06.489Z,99463.44
2022-12-19T22:00:35.270Z,99477.28
2022-12-19T22:03:19.402Z,99465.91
2022-12-19T22:05:48.289Z,99459.13
2022-12-19T22:08:18.104Z,99467.72
2022-12-19T22:10:46.951Z,99471.34
2022-12-19T22:13:17.075Z,99477.94
2022-12-19T22:15:46.032Z,99461.25
2022-12-19T22:18:14.747Z,99477.94
2022-12-19T22:20:44.070Z,99483.22
2022-12-19T22:23:13.948Z,99484.38
2022-12-19T22:25:42.751Z,99485.56
2022-12-19T22:28:11.764Z,99498.75
2022-12-19T22:30:41.919Z,99508.66
2022-12-19T22:33:14.928Z,99505.69
2022-12-19T22:35:43.731Z,99503.72
2022-12-19T22:38:12.511Z,99512.63
2022-12-19T22:40:41.239Z,99515.94
2022-12-19T22:43:10.026Z,99517.41
2022-12-19T22:45:38.798Z,99519.72
2022-12-19T22:48:09.271Z,99521.72
2022-12-19T22:50:38.012Z,99533.28
2022-12-19T22:53:12.615Z,99532.94
2022-12-19T22:55:42.236Z,99538.69
2022-12-19T22:58:11.105Z,99539.88
2022-12-19T23:00:39.943Z,99541.03
2022-12-19T23:03:10.243Z,99550.09
2022-12-19T23:05:39.268Z,99545.31
2022-12-19T23:08:08.363Z,99540.53
2022-12-19T23:10:37.134Z,99533.91
2022-12-19T23:13:05.815Z,99528.16
2022-12-19T23:15:36.807Z,99508.69
2022-12-19T23:18:05.850Z,99515.75
2022-12-19T23:20:36.036Z,99509.34
2022-12-19T23:23:05.267Z,99514.63
2022-12-19T23:25:39.953Z,99515.94
2022-12-19T23:28:09.492Z,99516.25
2022-12-19T23:30:38.523Z,99516.25
2022-12-19T23:33:07.258Z,99524.84
2022-12-19T23:35:37.389Z,99517.91
2022-12-19T23:38:06.118Z,99511.47
2022-12-19T23:40:35.210Z,99520.72
2022-12-19T23:43:04.020Z,99518.56
2022-12-19T23:45:32.892Z,99502.72
2022-12-19T23:48:01.768Z,99503.84
2022-12-19T23:50:30.540Z,99497.75
2022-12-19T23:53:00.641Z,99504.03
2022-12-19T23:55:29.332Z,99503.72
2022-12-19T23:57:58.128Z,99505.03
